createdAt,value
2023-03-26T00:03:05.172Z,2.67
2023-03-26T00:08:11.452Z,4.00
2023-03-26T00:13:13.166Z,6.20
2023-03-26T00:18:15.516Z,4.23
2023-03-26T00:23:17.638Z,4.83
2023-03-26T00:28:22.281Z,5.23
2023-03-26T00:33:24.276Z,7.60
2023-03-26T00:38:27.420Z,6.97
2023-03-26T00:43:32.908Z,5.97
2023-03-26T00:48:42.198Z,4.80
2023-03-26T00:53:48.773Z,6.07
2023-03-26T00:58:50.676Z,6.73
2023-03-26T01:04:07.256Z,6.17
2023-03-26T01:09:17.174Z,4.27
2023-03-26T01:14:23.627Z,6.00
2023-03-26T01:19:25.873Z,7.07
2023-03-26T01:24:27.553Z,8.37
2023-03-26T01:29:29.110Z,6.67
2023-03-26T01:34:49.857Z,3.53
2023-03-26T01:39:57.559Z,4.77
2023-03-26T01:45:15.502Z,6.73
2023-03-26T01:50:17.380Z,4.07
2023-03-26T01:55:19.604Z,5.93
2023-03-26T02:00:35.884Z,7.20
2023-03-26T02:05:44.121Z,6.90
2023-03-26T02:10:49.008Z,6.57
2023-03-26T02:16:01.935Z,7.40
2023-03-26T02:21:10.035Z,5.70
2023-03-26T02:26:11.738Z,4.77
2023-03-26T02:31:13.981Z,6.17
2023-03-26T02:36:19.706Z,5.77
2023-03-26T02:41:22.037Z,7.90
2023-03-26T02:46:23.679Z,4.50
2023-03-26T02:51:25.895Z,6.43
2023-03-26T02:56:28.066Z,3.57
2023-03-26T03:01:30.968Z,4.70
2023-03-26T03:06:32.889Z,5.27
2023-03-26T03:11:35.586Z,5.33
2023-03-26T03:16:37.316Z,5.40
2023-03-26T03:21:39.861Z,3.73
2023-03-26T03:26:42.414Z,5.83
2023-03-26T03:31:44.264Z,5.30
2023-03-26T03:36:49.093Z,3.77
2023-03-26T03:41:51.033Z,4.53
2023-03-26T03:46:55.578Z,4.33
2023-03-26T03:51:57.512Z,3.37
2023-03-26T03:56:59.298Z,6.33
2023-03-26T04:02:00.999Z,9.97
2023-03-26T04:07:02.651Z,5.03
2023-03-26T04:12:04.533Z,3.47
2023-03-26T04:17:06.302Z,4.07
2023-03-26T04:22:08.085Z,4.33
2023-03-26T04:27:20.285Z,10.57
2023-03-26T04:32:30.522Z,6.17
2023-03-26T04:37:35.276Z,5.60
2023-03-26T04:42:41.653Z,5.93
2023-03-26T04:47:43.814Z,7.87
2023-03-26T04:52:46.006Z,3.00
2023-03-26T04:57:53.280Z,5.30
2023-03-26T05:02:57.822Z,6.20
2023-03-26T05:07:59.524Z,6.70
2023-03-26T05:13:01.533Z,9.10
2023-03-26T05:18:03.221Z,6.10
2023-03-26T05:23:04.874Z,6.37
2023-03-26T05:28:06.535Z,7.47
2023-03-26T05:33:08.362Z,7.60
2023-03-26T05:38:10.056Z,6.97
2023-03-26T05:48:39.023Z,5.47
2023-03-26T05:53:41.022Z,5.10
2023-03-26T05:58:44.026Z,8.50
2023-03-26T06:03:46.279Z,6.13
2023-03-26T06:09:02.014Z,8.00
2023-03-26T06:14:05.020Z,18.80
2023-03-26T06:19:07.123Z,13.63
2023-03-26T06:29:35.093Z,11.23
2023-03-26T06:34:37.082Z,8.57
2023-03-26T06:39:39.071Z,7.10
2023-03-26T06:44:41.108Z,6.43
2023-03-26T06:49:44.914Z,9.27
2023-03-26T06:54:47.122Z,7.37
2023-03-26T06:59:49.104Z,7.63
2023-03-26T07:04:51.485Z,9.33
2023-03-26T07:09:54.259Z,15.47
2023-03-26T07:14:59.028Z,11.57
2023-03-26T07:20:02.109Z,7.00
2023-03-26T07:25:05.172Z,5.13
2023-03-26T07:30:16.156Z,7.73
2023-03-26T07:35:36.194Z,8.90
2023-03-26T07:41:17.178Z,10.13
2023-03-26T07:46:26.148Z,11.60
2023-03-26T07:51:29.172Z,11.10
2023-03-26T07:56:49.263Z,13.90
2023-03-26T08:02:18.564Z,9.53
2023-03-26T08:07:29.303Z,9.83
2023-03-26T08:12:44.197Z,10.33
2023-03-26T08:17:54.299Z,11.80
2023-03-26T08:23:06.214Z,8.50
2023-03-26T08:28:35.203Z,10.60
2023-03-26T08:33:38.344Z,7.23
2023-03-26T08:38:40.216Z,6.60
2023-03-26T08:44:20.206Z,6.40
2023-03-26T08:49:39.268Z,6.43
2023-03-26T08:55:05.232Z,8.17
2023-03-26T09:00:22.240Z,7.80
2023-03-26T09:05:52.621Z,7.30
2023-03-26T09:11:19.391Z,6.57
2023-03-26T09:16:35.345Z,6.27
2023-03-26T09:22:09.300Z,7.00
2023-03-26T09:27:32.312Z,5.97
2023-03-26T09:32:58.321Z,5.37
2023-03-26T09:38:03.281Z,4.43
2023-03-26T09:43:38.315Z,4.60
2023-03-26T09:49:17.569Z,5.03
2023-03-26T09:54:45.300Z,5.10
2023-03-26T09:59:53.346Z,3.57
2023-03-26T10:05:20.583Z,3.93
2023-03-26T10:10:59.602Z,2.73
2023-03-26T10:16:10.377Z,3.57
2023-03-26T10:21:47.336Z,3.07
2023-03-26T10:27:08.991Z,3.60
2023-03-26T10:32:49.466Z,2.67
2023-03-26T10:38:29.860Z,8.27
2023-03-26T10:44:10.373Z,2.37
2023-03-26T10:55:25.455Z,2.43
2023-03-26T11:06:51.123Z,2.20
2023-03-26T11:12:26.751Z,3.53
2023-03-26T11:17:42.541Z,3.87
2023-03-26T11:22:55.555Z,3.00
2023-03-26T11:28:19.249Z,2.40
2023-03-26T11:33:45.626Z,3.97
2023-03-26T11:38:51.684Z,2.93
2023-03-26T11:44:09.587Z,2.87
2023-03-26T11:49:16.797Z,2.90
2023-03-26T11:54:21.047Z,4.33
2023-03-26T11:59:56.679Z,3.53
2023-03-26T12:05:20.870Z,4.20
2023-03-26T12:10:31.716Z,2.20
2023-03-26T12:15:33.583Z,6.57
2023-03-26T12:20:37.600Z,4.13
2023-03-26T12:25:39.603Z,3.93
2023-03-26T12:30:52.716Z,4.00
2023-03-26T12:35:58.639Z,5.27
2023-03-26T12:41:08.626Z,2.33
2023-03-26T12:47:57.074Z,3.43
2023-03-26T12:52:07.154Z,3.17
2023-03-26T12:57:32.301Z,3.70
2023-03-26T13:03:01.657Z,4.33
2023-03-26T13:08:26.530Z,5.70
2023-03-26T13:13:33.945Z,3.97
2023-03-26T13:18:53.379Z,3.77
2023-03-26T13:24:31.152Z,5.83
2023-03-26T13:30:03.319Z,4.83
2023-03-26T13:35:10.786Z,2.10
2023-03-26T13:40:20.699Z,2.57
2023-03-26T13:45:53.242Z,3.73
2023-03-26T13:51:19.665Z,4.73
2023-03-26T13:56:28.020Z,4.30
2023-03-26T14:01:36.397Z,3.40
2023-03-26T14:06:47.297Z,4.90
2023-03-26T14:11:51.557Z,5.37
2023-03-26T14:17:06.518Z,6.40
2023-03-26T14:23:13.257Z,3.63
2023-03-26T14:28:38.337Z,3.30
2023-03-26T14:33:57.308Z,3.47
2023-03-26T14:39:14.360Z,3.20
2023-03-26T14:44:47.894Z,5.07
2023-03-26T14:50:12.189Z,4.37
2023-03-26T14:55:31.745Z,3.90
2023-03-26T15:00:51.345Z,2.80
2023-03-26T15:06:17.514Z,4.47
2023-03-26T15:11:45.766Z,2.33
2023-03-26T15:17:17.666Z,2.97
2023-03-26T15:22:34.412Z,4.17
2023-03-26T15:27:57.765Z,3.63
2023-03-26T15:33:18.027Z,2.30
2023-03-26T15:38:50.118Z,2.10
2023-03-26T15:44:23.077Z,2.40
2023-03-26T15:49:24.792Z,2.10
2023-03-26T15:54:36.746Z,2.27
2023-03-26T16:00:01.879Z,1.93
2023-03-26T16:05:19.499Z,2.57
2023-03-26T16:10:38.382Z,2.40
2023-03-26T16:15:40.695Z,3.10
2023-03-26T16:20:57.269Z,2.53
2023-03-26T16:26:18.447Z,2.50
2023-03-26T16:31:37.830Z,2.03
2023-03-26T16:36:45.176Z,3.00
2023-03-26T16:42:06.565Z,3.40
2023-03-26T16:47:21.697Z,2.30
2023-03-26T16:52:30.212Z,1.97
2023-03-26T16:58:28.404Z,2.13
2023-03-26T17:03:52.075Z,2.47
2023-03-26T17:09:01.407Z,2.90
2023-03-26T17:14:03.751Z,2.67
2023-03-26T17:19:33.042Z,4.97
2023-03-26T17:24:43.321Z,4.83
2023-03-26T17:30:07.545Z,2.30
2023-03-26T17:35:09.392Z,2.90
2023-03-26T17:40:43.509Z,3.23
2023-03-26T17:45:47.135Z,2.40
2023-03-26T17:51:40.416Z,2.53
2023-03-26T17:56:42.447Z,3.07
2023-03-26T18:01:46.238Z,4.57
2023-03-26T18:06:56.650Z,2.97
2023-03-26T18:12:24.673Z,3.83
2023-03-26T18:17:26.369Z,3.30
2023-03-26T18:22:30.264Z,3.60
2023-03-26T18:27:40.892Z,2.63
2023-03-26T18:33:11.959Z,2.30
2023-03-26T18:38:36.136Z,1.93
2023-03-26T18:43:43.858Z,2.10
2023-03-26T18:48:46.957Z,2.37
2023-03-26T18:53:56.601Z,6.87
2023-03-26T18:58:59.788Z,2.63
2023-03-26T19:04:05.906Z,2.50
2023-03-26T19:09:30.258Z,2.00
2023-03-26T19:14:37.044Z,1.93
2023-03-26T19:19:38.992Z,2.80
2023-03-26T19:24:42.092Z,2.20
2023-03-26T19:29:44.517Z,2.10
2023-03-26T19:34:48.222Z,4.50
2023-03-26T19:39:54.043Z,3.13
2023-03-26T19:44:57.271Z,2.30
2023-03-26T19:50:03.791Z,3.07
2023-03-26T19:55:10.171Z,2.90
2023-03-26T20:00:16.074Z,2.83
2023-03-26T20:05:23.674Z,3.13
2023-03-26T20:10:26.344Z,2.40
2023-03-26T20:15:31.816Z,3.90
2023-03-26T20:20:34.326Z,3.27
2023-03-26T20:25:51.734Z,3.63
2023-03-26T20:30:54.701Z,2.87
2023-03-26T20:35:58.529Z,3.97
2023-03-26T20:41:00.560Z,2.77
2023-03-26T20:46:02.549Z,2.70
2023-03-26T20:51:04.887Z,3.20
2023-03-26T20:56:15.438Z,2.60
2023-03-26T21:01:17.558Z,2.80
2023-03-26T21:06:19.303Z,2.83
2023-03-26T21:11:29.590Z,3.43
2023-03-26T21:16:31.524Z,3.33
2023-03-26T21:21:47.631Z,5.83
2023-03-26T21:27:27.252Z,4.73
2023-03-26T21:32:31.616Z,3.80
2023-03-26T21:37:33.696Z,4.17
2023-03-26T21:42:35.633Z,3.67
2023-03-26T21:47:37.781Z,5.13
2023-03-26T21:52:47.128Z,4.17
2023-03-26T21:58:00.560Z,3.63
2023-03-26T22:03:10.084Z,4.20
2023-03-26T22:08:34.024Z,4.87
2023-03-26T22:13:35.836Z,2.60
2023-03-26T22:18:37.466Z,2.80
2023-03-26T22:23:39.096Z,2.60
2023-03-26T22:28:40.880Z,3.10
2023-03-26T22:33:42.945Z,2.30
2023-03-26T22:38:44.961Z,2.60
2023-03-26T22:43:46.789Z,2.37
2023-03-26T22:48:48.674Z,3.10
2023-03-26T22:53:50.246Z,2.10
2023-03-26T22:58:51.895Z,2.13
2023-03-26T23:03:54.577Z,2.40
2023-03-26T23:08:57.071Z,2.20
2023-03-26T23:13:58.883Z,2.47
2023-03-26T23:19:00.713Z,2.30
2023-03-26T23:24:03.767Z,2.00
2023-03-26T23:29:05.356Z,2.50
2023-03-26T23:34:06.913Z,2.00
2023-03-26T23:39:08.907Z,2.10
2023-03-26T23:44:14.391Z,2.10
2023-03-26T23:49:16.204Z,2.00
2023-03-26T23:54:18.698Z,2.00
2023-03-26T23:59:20.428Z,2.00
